Flight Track Log - Related Links

Times and Time Zones

All times are in EST time to prevent confusion due to time zone crossing. See the SKW7367 flight status page for this flight to view local times or setup timezone preferences in your user account.

Time Position Orientation Groundspeed Altitude Reporting Facility
EST Latitude Longitude Course Direction KTS MPH feet Rate Location/Type
Mon 04:04:40 PM 42.2147 -83.3628 223° Southwest 138 159 1,200  Level Cleveland Center
Mon 04:05:10 PM 42.2008 -83.3806 223° Southwest 151 174 2,700 2,372 Climbing Cleveland Center
Mon 04:05:23 PM 42.2000 -83.3839 251° West 146 168 2,900 3,246 Climbing Cleveland Center
Mon 04:06:11 PM 42.1656 -83.4289 224° Southwest 188 216 6,000 3,290 Climbing Cleveland Center
Mon 04:06:25 PM 42.1603 -83.4328 209° Southwest 184 212 6,300 2,164 Climbing Cleveland Center
Mon 04:07:12 PM 42.1250 -83.4908 231° Southwest 229 264 8,200 2,129 Climbing Cleveland Center
Mon 04:07:27 PM 42.1247 -83.4994 268° West 231 266 8,500 1,403 Climbing Cleveland Center
Mon 04:08:29 PM 42.1564 -83.5703 301° West 240 276 10,000 1,248 Climbing Cleveland Center
Mon 04:09:32 PM 42.2414 -83.5933 349° North 303 349 11,100 1,536 Climbing Cleveland Center
Mon 04:10:34 PM 42.3514 -83.6050 356° North 329 379 13,200 1,887 Climbing Cleveland Center
Mon 04:11:36 PM 42.4478 -83.5622 18° North 359 413 15,000 871 Climbing Cleveland Center
Mon 04:12:38 PM 42.5469 -83.5197 18° North 369 425 15,000  Level Cleveland Center
Mon 04:13:40 PM 42.6461 -83.4786 17° North 372 428 15,000  Level Cleveland Center
Mon 04:14:42 PM 42.7447 -83.4367 17° North 370 426 15,000  Level Cleveland Center
Mon 04:15:44 PM 42.8419 -83.3953 17° North 368 423 15,000 387 Level Cleveland Center
Mon 04:16:46 PM 42.9367 -83.3847 North 347 399 15,800 919 Climbing Cleveland Center
Mon 04:17:48 PM 43.0544 -83.3942 357° North 353 406 16,900 532 Climbing Cleveland Center
Mon 04:18:50 PM 43.1558 -83.4006 357° North 364 419 16,900  Level Cleveland Center
Mon 04:19:52 PM 43.2533 -83.4083 357° North 354 407 16,900  Level Cleveland Center
Mon 04:20:54 PM 43.3536 -83.4164 357° North 360 414 16,900  Level Cleveland Center
Mon 04:21:56 PM 43.4511 -83.4236 357° North 354 407 16,900  Level Cleveland Center
Mon 04:22:59 PM 43.5442 -83.4308 357° North 339 390 16,900  Level Cleveland Center
Mon 04:24:01 PM 43.6600 -83.4389 357° North 344 396 16,900  Level Cleveland Center
Mon 04:25:03 PM 43.7564 -83.4467 357° North 346 398 16,900 145 Level Cleveland Center
Mon 04:26:05 PM 43.8533 -83.4542 357° North 349 402 17,200 145 Climbing Cleveland Center
Mon 04:27:07 PM 43.9483 -83.4608 357° North 344 396 17,200  Level Cleveland Center
Mon 04:28:09 PM 44.0447 -83.4658 358° North 346 398 17,200  Level Cleveland Center
Mon 04:29:11 PM 44.1425 -83.4744 356° North 350 403 17,200  Level Cleveland Center
Mon 04:30:13 PM 44.2597 -83.4831 357° North 352 405 17,200  Level Cleveland Center
Mon 04:31:15 PM 44.3606 -83.4903 357° North 352 405 17,200  Level Cleveland Center
Mon 04:32:17 PM 44.4578 -83.4967 357° North 351 404 17,200 -871 Level Cleveland Center
Mon 04:33:19 PM 44.5547 -83.5042 357° North 350 403 15,400 -2,340 Descending Cleveland Center
Mon 04:34:38 PM 44.6811 -83.5164 356° North 325 374 11,700 -2,553 Descending Minneapolis Center
Mon 04:35:40 PM 44.7611 -83.5222 357° North 297 342 9,400 -2,371 Descending Minneapolis Center
Mon 04:36:42 PM 44.8397 -83.5275 357° North 269 310 6,800 -2,226 Descending Minneapolis Center
Mon 04:37:44 PM 44.9047 -83.5333 356° North 247 284 4,800 -1,694 Descending Minneapolis Center
Mon 04:38:46 PM 44.9750 -83.5386 357° North 238 274 3,300 -732 Descending Minneapolis Center
Mon 04:39:47 PM 45.0406 -83.5436 357° North 227 261 3,300 -341 Level Minneapolis Center
Mon 04:40:49 PM 45.0992 -83.5464 358° North 219 252 2,600 -435 Descending Minneapolis Center
Mon 04:41:51 PM 45.1514 -83.5092 27° Northeast 196 226 2,400 -145 Descending Minneapolis Center
Mon 04:42:53 PM 45.1686 -83.5422 306° West 151 174 2,300 -435 Descending Minneapolis Center
Mon 04:43:55 PM 45.1317 -83.5625 201° Southwest 136 157 1,500 -726 Descending Minneapolis Center
Mon 04:44:57 PM 45.0961 -83.5614 179° South 131 151 800 -387 Descending Minneapolis Center
Mon 04:45:59 PM 45.0586 -83.5594 178° South 131 151 700 -97 Descending Minneapolis Center

Login

Don't have an account? Register now (free) for customized features, flight alerts, and more!